CMA CGM Tosca — FMEL — position and weather

sailwx.info

Track history (hours):
 
Tides and Currents Weather Stations Pressure Air Temp Water Temp Dewpoint Dewpoint Depression Visibility Wind Speed Wind Dir Waves Ship Positions

CMA CGM Tosca

Last reported at 2014-Jul-23 08:19 UTC. Time now 2014-Jul-25 13:44 UTC.
Position N 01°12' E 103°39'.

Length 334 m; draft 12.9 m.

Type: Cargo ship. MMSI: 228335900.

Date/timePositionNaut miles runAvg speedWind from/ knotsBaromVisibWave heightAir tempDewpointWater temp
2014-Jul-23 08:19N 01°12' E 103°39'7 9.0
2014-Jul-23 07:33N 01°16' E 103°44'1 0.1
2014-Jul-22 16:15N 01°16' E 103°45'2 3.5
2014-Jul-22 15:33N 01°15' E 103°47'5 4.6
2014-Jul-22 14:28N 01°13' E 103°52'6 7.1
2014-Jul-22 13:33N 01°15' E 103°58'  
2014-Jul-19 00:06N 22°20' E 114°07'0 0.0
2014-Jul-18 10:09N 22°19' E 114°07'7 6.5
2014-Jul-18 09:08N 22°13' E 114°10'11 5.5
2014-Jul-18 07:09N 22°04' E 114°16'0 0.0
2014-Jul-18 06:33N 22°04' E 114°16'0 0.0
2014-Jul-18 05:33N 22°04' E 114°16'0 0.0
2014-Jul-18 04:15N 22°04' E 114°16'0 0.1
2014-Jul-18 03:33N 22°04' E 114°16'0 0.0
2014-Jul-18 02:33N 22°04' E 114°16'0 0.0
2014-Jul-18 01:27N 22°04' E 114°16'0 0.1
2014-Jul-18 00:33N 22°04' E 114°16'0 0.0
2014-Jul-17 00:29N 22°04' E 114°16'0 0.0
2014-Jul-16 09:21N 22°04' E 114°16'15912.4
2014-Jul-15 20:32N 22°54' E 117°00'1919.4
2014-Jul-15 19:33N 23°06' E 117°16'7618.4
2014-Jul-15 15:25N 23°55' E 118°19'3418.1
2014-Jul-15 13:31N 24°16' E 118°49'1818.5
2014-Jul-15 12:31N 24°27' E 119°06'1818.7
2014-Jul-15 11:33N 24°39' E 119°21'1818.2
2014-Jul-15 10:33N 24°49' E 119°37'1817.7
2014-Jul-15 09:33N 24°60' E 119°52'1817.7
2014-Jul-15 08:33N 25°15' E 120°03'2110.5
2014-Jul-15 06:33N 25°33' E 120°15'24916.6
2014-Jul-14 15:33N 29°10' E 122°31'2216.8
2014-Jul-14 14:13N 29°33' E 122°32'1116.9
2014-Jul-14 13:33N 29°42' E 122°26'10 9.8
2014-Jul-14 12:33N 29°47' E 122°16'9 9.2
2014-Jul-14 11:33N 29°48' E 122°05'5 4.6
2014-Jul-14 10:30N 29°46' E 122°00'0 0.0
2014-Jul-14 09:30N 29°46' E 122°00'0 0.0
2014-Jul-14 08:24N 29°46' E 122°00'0 0.0
2014-Jul-14 07:30N 29°46' E 122°00'0 0.0
2014-Jul-14 06:30N 29°46' E 122°00'0 0.0
2014-Jul-14 05:30N 29°46' E 122°00'0 0.0
2014-Jul-14 04:18N 29°46' E 122°00'0 0.0
2014-Jul-14 03:30N 29°46' E 122°00'0 0.0
2014-Jul-14 02:24N 29°46' E 122°00'0 0.0
2014-Jul-14 01:30N 29°46' E 122°00'0 0.0
2014-Jul-14 00:30N 29°46' E 122°00'0 0.0
2014-Jul-13 23:30N 29°46' E 122°00'0 0.0
2014-Jul-13 22:30N 29°46' E 122°00'0 0.0
2014-Jul-13 21:30N 29°46' E 122°00'0 0.0
2014-Jul-13 20:30N 29°46' E 122°00'0 0.0
2014-Jul-13 19:33N 29°46' E 122°00'3 2.5
2014-Jul-13 18:33N 29°47' E 122°03'9 9.3
2014-Jul-13 17:33N 29°50' E 122°13'10 9.7
2014-Jul-13 16:33N 29°44' E 122°22'10 9.8
2014-Jul-13 15:33N 29°50' E 122°31'9 9.3
2014-Jul-13 14:33N 29°59' E 122°35'2 2.1
2014-Jul-13 13:33N 29°57' E 122°36'2 2.0
2014-Jul-13 12:33N 29°56' E 122°38'1 1.4
2014-Jul-13 11:33N 29°55' E 122°39'1 1.4
2014-Jul-13 10:34N 29°53' E 122°39'6 5.6
2014-Jul-13 09:33N 29°48' E 122°37'2 2.2
2014-Jul-13 08:33N 29°50' E 122°39'  
Track history (hours):
 
Tides and Currents Weather Stations Pressure Air Temp Water Temp Dewpoint Dewpoint Depression Visibility Wind Speed Wind Dir Waves Ship Positions

CMA CGM Tosca

Last reported at 2014-Jul-23 08:19 UTC. Time now 2014-Jul-25 13:44 UTC.
Position N 01°12' E 103°39'.

Length 334 m; draft 12.9 m.

Type: Cargo ship. MMSI: 228335900.

Date/timePositionNaut miles runAvg speedWind from/ knotsBaromVisibWave heightAir tempDewpointWater temp
2014-Jul-23 08:19N 01°12' E 103°39'7 9.0
2014-Jul-23 07:33N 01°16' E 103°44'1 0.1
2014-Jul-22 16:15N 01°16' E 103°45'2 3.5
2014-Jul-22 15:33N 01°15' E 103°47'5 4.6
2014-Jul-22 14:28N 01°13' E 103°52'6 7.1
2014-Jul-22 13:33N 01°15' E 103°58'  
2014-Jul-19 00:06N 22°20' E 114°07'0 0.0
2014-Jul-18 10:09N 22°19' E 114°07'7 6.5
2014-Jul-18 09:08N 22°13' E 114°10'11 5.5
2014-Jul-18 07:09N 22°04' E 114°16'0 0.0
2014-Jul-18 06:33N 22°04' E 114°16'0 0.0
2014-Jul-18 05:33N 22°04' E 114°16'0 0.0
2014-Jul-18 04:15N 22°04' E 114°16'0 0.1
2014-Jul-18 03:33N 22°04' E 114°16'0 0.0
2014-Jul-18 02:33N 22°04' E 114°16'0 0.0
2014-Jul-18 01:27N 22°04' E 114°16'0 0.1
2014-Jul-18 00:33N 22°04' E 114°16'0 0.0
2014-Jul-17 00:29N 22°04' E 114°16'0 0.0
2014-Jul-16 09:21N 22°04' E 114°16'15912.4
2014-Jul-15 20:32N 22°54' E 117°00'1919.4
2014-Jul-15 19:33N 23°06' E 117°16'7618.4
2014-Jul-15 15:25N 23°55' E 118°19'3418.1
2014-Jul-15 13:31N 24°16' E 118°49'1818.5
2014-Jul-15 12:31N 24°27' E 119°06'1818.7
2014-Jul-15 11:33N 24°39' E 119°21'1818.2
2014-Jul-15 10:33N 24°49' E 119°37'1817.7
2014-Jul-15 09:33N 24°60' E 119°52'1817.7
2014-Jul-15 08:33N 25°15' E 120°03'2110.5
2014-Jul-15 06:33N 25°33' E 120°15'24916.6
2014-Jul-14 15:33N 29°10' E 122°31'2216.8
2014-Jul-14 14:13N 29°33' E 122°32'1116.9
2014-Jul-14 13:33N 29°42' E 122°26'10 9.8
2014-Jul-14 12:33N 29°47' E 122°16'9 9.2
2014-Jul-14 11:33N 29°48' E 122°05'5 4.6
2014-Jul-14 10:30N 29°46' E 122°00'0 0.0
2014-Jul-14 09:30N 29°46' E 122°00'0 0.0
2014-Jul-14 08:24N 29°46' E 122°00'0 0.0
2014-Jul-14 07:30N 29°46' E 122°00'0 0.0
2014-Jul-14 06:30N 29°46' E 122°00'0 0.0
2014-Jul-14 05:30N 29°46' E 122°00'0 0.0
2014-Jul-14 04:18N 29°46' E 122°00'0 0.0
2014-Jul-14 03:30N 29°46' E 122°00'0 0.0
2014-Jul-14 02:24N 29°46' E 122°00'0 0.0
2014-Jul-14 01:30N 29°46' E 122°00'0 0.0
2014-Jul-14 00:30N 29°46' E 122°00'0 0.0
2014-Jul-13 23:30N 29°46' E 122°00'0 0.0
2014-Jul-13 22:30N 29°46' E 122°00'0 0.0
2014-Jul-13 21:30N 29°46' E 122°00'0 0.0
2014-Jul-13 20:30N 29°46' E 122°00'0 0.0
2014-Jul-13 19:33N 29°46' E 122°00'3 2.5
2014-Jul-13 18:33N 29°47' E 122°03'9 9.3
2014-Jul-13 17:33N 29°50' E 122°13'10 9.7
2014-Jul-13 16:33N 29°44' E 122°22'10 9.8
2014-Jul-13 15:33N 29°50' E 122°31'9 9.3
2014-Jul-13 14:33N 29°59' E 122°35'2 2.1
2014-Jul-13 13:33N 29°57' E 122°36'2 2.0
2014-Jul-13 12:33N 29°56' E 122°38'1 1.4
2014-Jul-13 11:33N 29°55' E 122°39'1 1.4
2014-Jul-13 10:34N 29°53' E 122°39'6 5.6
2014-Jul-13 09:33N 29°48' E 122°37'2 2.2
2014-Jul-13 08:33N 29°50' E 122°39'  

Dump ship's entire track history